sensor_id;sensor_type;location;lat;lon;timestamp;temperature;humidity
22006;DHT22;11167;46.988;15.470;2023-04-03T00:01:06;11.70;69.60
22006;DHT22;11167;46.988;15.470;2023-04-03T00:03:08;11.70;69.70
22006;DHT22;11167;46.988;15.470;2023-04-03T00:05:09;11.70;69.70
22006;DHT22;11167;46.988;15.470;2023-04-03T00:07:10;11.60;69.60
22006;DHT22;11167;46.988;15.470;2023-04-03T00:09:13;11.70;69.70
22006;DHT22;11167;46.988;15.470;2023-04-03T00:11:13;11.60;69.60
22006;DHT22;11167;46.988;15.470;2023-04-03T00:13:15;11.60;69.70
22006;DHT22;11167;46.988;15.470;2023-04-03T00:15:16;11.50;70.50
22006;DHT22;11167;46.988;15.470;2023-04-03T00:17:17;11.50;69.70
22006;DHT22;11167;46.988;15.470;2023-04-03T00:19:18;11.50;69.70
22006;DHT22;11167;46.988;15.470;2023-04-03T00:21:19;11.50;69.60
22006;DHT22;11167;46.988;15.470;2023-04-03T00:23:20;11.40;69.60
22006;DHT22;11167;46.988;15.470;2023-04-03T00:25:21;11.50;69.60
22006;DHT22;11167;46.988;15.470;2023-04-03T00:27:23;11.40;69.50
22006;DHT22;11167;46.988;15.470;2023-04-03T00:29:23;11.40;69.60
22006;DHT22;11167;46.988;15.470;2023-04-03T00:31:24;11.40;70.40
22006;DHT22;11167;46.988;15.470;2023-04-03T00:33:25;11.30;69.60
22006;DHT22;11167;46.988;15.470;2023-04-03T00:35:27;11.30;69.60
22006;DHT22;11167;46.988;15.470;2023-04-03T00:37:28;11.30;69.60
22006;DHT22;11167;46.988;15.470;2023-04-03T00:39:30;11.20;69.60
22006;DHT22;11167;46.988;15.470;2023-04-03T00:41:32;11.20;70.20
22006;DHT22;11167;46.988;15.470;2023-04-03T00:43:33;11.20;69.70
22006;DHT22;11167;46.988;15.470;2023-04-03T00:45:35;11.20;69.70
22006;DHT22;11167;46.988;15.470;2023-04-03T00:47:36;11.10;69.70
22006;DHT22;11167;46.988;15.470;2023-04-03T00:49:38;11.10;69.70
22006;DHT22;11167;46.988;15.470;2023-04-03T00:51:40;11.10;69.80
22006;DHT22;11167;46.988;15.470;2023-04-03T00:53:43;11.00;69.70
22006;DHT22;11167;46.988;15.470;2023-04-03T00:55:43;11.00;69.70
22006;DHT22;11167;46.988;15.470;2023-04-03T00:57:45;11.00;69.70
22006;DHT22;11167;46.988;15.470;2023-04-03T00:59:49;11.00;69.80
22006;DHT22;11167;46.988;15.470;2023-04-03T01:01:50;10.90;69.70
22006;DHT22;11167;46.988;15.470;2023-04-03T01:03:51;11.00;69.70
22006;DHT22;11167;46.988;15.470;2023-04-03T01:05:52;10.90;69.70
22006;DHT22;11167;46.988;15.470;2023-04-03T01:07:53;10.90;69.70
22006;DHT22;11167;46.988;15.470;2023-04-03T01:09:59;10.90;69.70
22006;DHT22;11167;46.988;15.470;2023-04-03T01:12:44;10.80;69.70
22006;DHT22;11167;46.988;15.470;2023-04-03T01:14:06;10.80;69.70
22006;DHT22;11167;46.988;15.470;2023-04-03T01:16:07;10.80;69.80
22006;DHT22;11167;46.988;15.470;2023-04-03T01:18:09;10.70;69.70
22006;DHT22;11167;46.988;15.470;2023-04-03T01:22:30;10.70;69.90
22006;DHT22;11167;46.988;15.470;2023-04-03T01:26:35;10.60;69.90
22006;DHT22;11167;46.988;15.470;2023-04-03T01:28:36;10.60;69.20
22006;DHT22;11167;46.988;15.470;2023-04-03T01:30:48;10.60;69.90
22006;DHT22;11167;46.988;15.470;2023-04-03T01:32:46;10.60;69.90
22006;DHT22;11167;46.988;15.470;2023-04-03T01:34:46;10.50;69.90
22006;DHT22;11167;46.988;15.470;2023-04-03T01:36:47;10.60;70.00
22006;DHT22;11167;46.988;15.470;2023-04-03T01:38:48;10.50;70.10
22006;DHT22;11167;46.988;15.470;2023-04-03T01:40:49;10.50;70.10
22006;DHT22;11167;46.988;15.470;2023-04-03T01:42:51;10.50;70.20
22006;DHT22;11167;46.988;15.470;2023-04-03T01:44:52;10.40;70.20
22006;DHT22;11167;46.988;15.470;2023-04-03T01:46:52;10.40;70.20
22006;DHT22;11167;46.988;15.470;2023-04-03T01:48:53;10.40;70.20
22006;DHT22;11167;46.988;15.470;2023-04-03T01:50:54;10.40;70.20
22006;DHT22;11167;46.988;15.470;2023-04-03T01:52:55;10.40;70.30
22006;DHT22;11167;46.988;15.470;2023-04-03T01:54:56;10.30;70.30
22006;DHT22;11167;46.988;15.470;2023-04-03T01:56:56;10.30;70.30
22006;DHT22;11167;46.988;15.470;2023-04-03T01:58:57;10.30;70.40
22006;DHT22;11167;46.988;15.470;2023-04-03T02:00:59;10.30;70.40
22006;DHT22;11167;46.988;15.470;2023-04-03T02:03:00;10.30;70.50
22006;DHT22;11167;46.988;15.470;2023-04-03T02:05:01;10.20;70.50
22006;DHT22;11167;46.988;15.470;2023-04-03T02:07:02;10.20;70.50
22006;DHT22;11167;46.988;15.470;2023-04-03T02:09:03;10.20;70.50
22006;DHT22;11167;46.988;15.470;2023-04-03T02:11:04;10.10;70.50
22006;DHT22;11167;46.988;15.470;2023-04-03T02:13:05;10.10;70.50
22006;DHT22;11167;46.988;15.470;2023-04-03T02:15:06;10.10;70.60
22006;DHT22;11167;46.988;15.470;2023-04-03T02:17:07;10.10;70.60
22006;DHT22;11167;46.988;15.470;2023-04-03T02:19:09;10.00;70.60
22006;DHT22;11167;46.988;15.470;2023-04-03T02:21:10;10.00;70.60
22006;DHT22;11167;46.988;15.470;2023-04-03T02:23:11;10.00;70.70
22006;DHT22;11167;46.988;15.470;2023-04-03T02:25:12;10.00;70.70
22006;DHT22;11167;46.988;15.470;2023-04-03T02:27:14;9.90;70.60
22006;DHT22;11167;46.988;15.470;2023-04-03T02:29:15;9.90;70.70
22006;DHT22;11167;46.988;15.470;2023-04-03T02:31:17;9.90;70.70
22006;DHT22;11167;46.988;15.470;2023-04-03T02:33:18;9.90;70.70
22006;DHT22;11167;46.988;15.470;2023-04-03T02:35:19;9.90;70.90
22006;DHT22;11167;46.988;15.470;2023-04-03T02:37:20;9.80;70.70
22006;DHT22;11167;46.988;15.470;2023-04-03T02:39:21;9.80;70.80
22006;DHT22;11167;46.988;15.470;2023-04-03T02:41:22;9.80;71.00
22006;DHT22;11167;46.988;15.470;2023-04-03T02:43:23;9.70;70.90
22006;DHT22;11167;46.988;15.470;2023-04-03T02:45:24;9.70;70.90
22006;DHT22;11167;46.988;15.470;2023-04-03T02:47:26;9.70;71.00
22006;DHT22;11167;46.988;15.470;2023-04-03T02:49:27;9.70;71.10
22006;DHT22;11167;46.988;15.470;2023-04-03T02:51:28;9.70;71.10
22006;DHT22;11167;46.988;15.470;2023-04-03T02:53:29;9.70;71.10
22006;DHT22;11167;46.988;15.470;2023-04-03T02:55:30;9.60;71.10
22006;DHT22;11167;46.988;15.470;2023-04-03T02:57:30;9.60;71.10
22006;DHT22;11167;46.988;15.470;2023-04-03T02:59:31;9.60;71.10
22006;DHT22;11167;46.988;15.470;2023-04-03T03:01:32;9.60;71.10
22006;DHT22;11167;46.988;15.470;2023-04-03T03:03:33;9.50;71.00
22006;DHT22;11167;46.988;15.470;2023-04-03T03:05:34;9.50;71.10
22006;DHT22;11167;46.988;15.470;2023-04-03T03:07:36;9.50;71.10
22006;DHT22;11167;46.988;15.470;2023-04-03T03:09:37;9.40;71.00
22006;DHT22;11167;46.988;15.470;2023-04-03T03:11:38;9.40;71.10
22006;DHT22;11167;46.988;15.470;2023-04-03T03:13:39;9.40;71.00
22006;DHT22;11167;46.988;15.470;2023-04-03T03:15:41;9.40;71.10
22006;DHT22;11167;46.988;15.470;2023-04-03T03:17:42;9.40;71.10
22006;DHT22;11167;46.988;15.470;2023-04-03T03:19:43;9.30;71.10
22006;DHT22;11167;46.988;15.470;2023-04-03T03:21:44;9.30;71.90
22006;DHT22;11167;46.988;15.470;2023-04-03T03:23:45;9.30;71.10
22006;DHT22;11167;46.988;15.470;2023-04-03T03:25:46;9.30;71.20
22006;DHT22;11167;46.988;15.470;2023-04-03T03:27:47;9.30;71.20
22006;DHT22;11167;46.988;15.470;2023-04-03T03:29:49;9.20;71.20
22006;DHT22;11167;46.988;15.470;2023-04-03T03:31:50;9.20;71.20
22006;DHT22;11167;46.988;15.470;2023-04-03T03:33:50;9.20;71.20
22006;DHT22;11167;46.988;15.470;2023-04-03T03:35:52;9.10;71.10
22006;DHT22;11167;46.988;15.470;2023-04-03T03:37:53;9.10;71.10
22006;DHT22;11167;46.988;15.470;2023-04-03T03:39:54;9.10;71.90
22006;DHT22;11167;46.988;15.470;2023-04-03T03:41:55;9.10;71.20
22006;DHT22;11167;46.988;15.470;2023-04-03T03:43:56;9.00;71.20
22006;DHT22;11167;46.988;15.470;2023-04-03T03:45:57;9.00;71.20
22006;DHT22;11167;46.988;15.470;2023-04-03T03:47:58;9.00;71.20
22006;DHT22;11167;46.988;15.470;2023-04-03T03:49:59;9.00;71.20
22006;DHT22;11167;46.988;15.470;2023-04-03T03:52:00;8.90;71.20
22006;DHT22;11167;46.988;15.470;2023-04-03T03:54:01;8.90;71.20
22006;DHT22;11167;46.988;15.470;2023-04-03T03:56:03;8.90;71.30
22006;DHT22;11167;46.988;15.470;2023-04-03T03:58:04;8.90;71.40
22006;DHT22;11167;46.988;15.470;2023-04-03T04:00:07;8.80;71.20
22006;DHT22;11167;46.988;15.470;2023-04-03T04:02:09;8.80;71.20
22006;DHT22;11167;46.988;15.470;2023-04-03T04:04:10;8.80;71.20
22006;DHT22;11167;46.988;15.470;2023-04-03T04:06:11;8.80;71.20
22006;DHT22;11167;46.988;15.470;2023-04-03T04:08:12;8.80;71.20
22006;DHT22;11167;46.988;15.470;2023-04-03T04:10:13;8.70;71.20
22006;DHT22;11167;46.988;15.470;2023-04-03T04:12:14;8.70;71.20
22006;DHT22;11167;46.988;15.470;2023-04-03T04:14:16;8.70;71.20
22006;DHT22;11167;46.988;15.470;2023-04-03T04:16:17;8.70;71.30
22006;DHT22;11167;46.988;15.470;2023-04-03T04:20:38;8.50;71.20
22006;DHT22;11167;46.988;15.470;2023-04-03T04:22:39;8.60;71.40
22006;DHT22;11167;46.988;15.470;2023-04-03T04:24:41;8.60;71.30
22006;DHT22;11167;46.988;15.470;2023-04-03T04:26:43;8.50;71.30
22006;DHT22;11167;46.988;15.470;2023-04-03T04:28:44;8.50;71.30
22006;DHT22;11167;46.988;15.470;2023-04-03T04:30:44;8.50;71.40
22006;DHT22;11167;46.988;15.470;2023-04-03T04:32:46;8.50;71.40
22006;DHT22;11167;46.988;15.470;2023-04-03T04:34:47;8.50;71.40
22006;DHT22;11167;46.988;15.470;2023-04-03T04:36:48;8.40;71.40
22006;DHT22;11167;46.988;15.470;2023-04-03T04:38:49;8.40;71.30
22006;DHT22;11167;46.988;15.470;2023-04-03T04:40:51;8.40;71.40
22006;DHT22;11167;46.988;15.470;2023-04-03T04:42:52;8.40;71.30
22006;DHT22;11167;46.988;15.470;2023-04-03T04:44:56;8.30;71.40
22006;DHT22;11167;46.988;15.470;2023-04-03T04:46:57;8.30;71.40
22006;DHT22;11167;46.988;15.470;2023-04-03T04:48:58;8.30;71.40
22006;DHT22;11167;46.988;15.470;2023-04-03T04:50:59;8.30;71.40
22006;DHT22;11167;46.988;15.470;2023-04-03T04:53:00;8.20;71.40
22006;DHT22;11167;46.988;15.470;2023-04-03T04:55:01;8.20;71.50
22006;DHT22;11167;46.988;15.470;2023-04-03T04:57:01;8.20;71.50
22006;DHT22;11167;46.988;15.470;2023-04-03T04:59:02;8.20;71.60
22006;DHT22;11167;46.988;15.470;2023-04-03T05:01:04;8.20;71.60
22006;DHT22;11167;46.988;15.470;2023-04-03T05:03:06;8.20;71.60
22006;DHT22;11167;46.988;15.470;2023-04-03T05:05:07;8.10;72.50
22006;DHT22;11167;46.988;15.470;2023-04-03T05:07:08;8.20;71.80
22006;DHT22;11167;46.988;15.470;2023-04-03T05:09:09;8.10;71.70
22006;DHT22;11167;46.988;15.470;2023-04-03T05:11:10;8.10;71.80
22006;DHT22;11167;46.988;15.470;2023-04-03T05:13:11;8.10;71.80
22006;DHT22;11167;46.988;15.470;2023-04-03T05:15:12;8.10;71.80
22006;DHT22;11167;46.988;15.470;2023-04-03T05:17:13;8.10;71.90
22006;DHT22;11167;46.988;15.470;2023-04-03T05:19:13;8.10;71.90
22006;DHT22;11167;46.988;15.470;2023-04-03T05:21:14;8.00;71.80
22006;DHT22;11167;46.988;15.470;2023-04-03T05:23:16;8.00;71.90
22006;DHT22;11167;46.988;15.470;2023-04-03T05:25:17;8.00;72.00
22006;DHT22;11167;46.988;15.470;2023-04-03T05:27:17;8.00;72.00
22006;DHT22;11167;46.988;15.470;2023-04-03T05:29:18;8.00;72.00
22006;DHT22;11167;46.988;15.470;2023-04-03T05:31:19;8.00;72.00
22006;DHT22;11167;46.988;15.470;2023-04-03T05:33:21;8.00;72.10
22006;DHT22;11167;46.988;15.470;2023-04-03T05:35:22;8.00;72.10
22006;DHT22;11167;46.988;15.470;2023-04-03T05:37:23;7.90;72.00
22006;DHT22;11167;46.988;15.470;2023-04-03T05:39:24;7.90;72.10
22006;DHT22;11167;46.988;15.470;2023-04-03T05:41:26;7.90;72.20
22006;DHT22;11167;46.988;15.470;2023-04-03T05:43:27;7.90;72.20
22006;DHT22;11167;46.988;15.470;2023-04-03T05:45:28;7.90;72.30
22006;DHT22;11167;46.988;15.470;2023-04-03T05:47:29;7.90;72.20
22006;DHT22;11167;46.988;15.470;2023-04-03T05:49:31;7.90;72.20
22006;DHT22;11167;46.988;15.470;2023-04-03T05:51:35;7.90;72.30
22006;DHT22;11167;46.988;15.470;2023-04-03T05:53:36;7.90;72.20
22006;DHT22;11167;46.988;15.470;2023-04-03T05:55:37;7.90;72.20
22006;DHT22;11167;46.988;15.470;2023-04-03T05:57:38;7.80;72.10
22006;DHT22;11167;46.988;15.470;2023-04-03T05:59:39;7.90;72.20
22006;DHT22;11167;46.988;15.470;2023-04-03T06:01:40;7.80;72.10
22006;DHT22;11167;46.988;15.470;2023-04-03T06:03:41;7.80;72.10
22006;DHT22;11167;46.988;15.470;2023-04-03T06:05:42;7.80;72.10
22006;DHT22;11167;46.988;15.470;2023-04-03T06:07:43;7.80;72.20
22006;DHT22;11167;46.988;15.470;2023-04-03T06:09:45;7.80;72.20
22006;DHT22;11167;46.988;15.470;2023-04-03T06:11:46;7.80;72.30
22006;DHT22;11167;46.988;15.470;2023-04-03T06:13:47;7.80;72.10
22006;DHT22;11167;46.988;15.470;2023-04-03T06:15:48;7.80;72.20
22006;DHT22;11167;46.988;15.470;2023-04-03T06:17:49;7.80;72.20
22006;DHT22;11167;46.988;15.470;2023-04-03T06:19:50;7.80;73.00
22006;DHT22;11167;46.988;15.470;2023-04-03T06:21:51;7.80;72.10
22006;DHT22;11167;46.988;15.470;2023-04-03T06:23:53;7.80;72.30
22006;DHT22;11167;46.988;15.470;2023-04-03T06:25:54;7.80;72.20
22006;DHT22;11167;46.988;15.470;2023-04-03T06:27:55;7.80;72.20
22006;DHT22;11167;46.988;15.470;2023-04-03T06:29:56;7.80;72.10
22006;DHT22;11167;46.988;15.470;2023-04-03T06:31:56;7.80;72.10
22006;DHT22;11167;46.988;15.470;2023-04-03T06:33:57;7.80;72.10
22006;DHT22;11167;46.988;15.470;2023-04-03T06:35:59;7.80;72.10
22006;DHT22;11167;46.988;15.470;2023-04-03T06:38:00;7.80;72.10
22006;DHT22;11167;46.988;15.470;2023-04-03T06:40:01;7.80;72.00
22006;DHT22;11167;46.988;15.470;2023-04-03T06:42:03;7.80;72.10
22006;DHT22;11167;46.988;15.470;2023-04-03T06:44:04;7.80;72.00
22006;DHT22;11167;46.988;15.470;2023-04-03T06:46:05;7.80;72.10
22006;DHT22;11167;46.988;15.470;2023-04-03T06:48:06;7.80;72.10
22006;DHT22;11167;46.988;15.470;2023-04-03T06:50:08;7.80;72.10
22006;DHT22;11167;46.988;15.470;2023-04-03T06:52:11;7.80;72.10
22006;DHT22;11167;46.988;15.470;2023-04-03T06:54:12;7.80;72.10
22006;DHT22;11167;46.988;15.470;2023-04-03T06:56:13;7.80;72.10
22006;DHT22;11167;46.988;15.470;2023-04-03T06:58:14;7.80;72.00
22006;DHT22;11167;46.988;15.470;2023-04-03T07:00:16;7.80;72.00
22006;DHT22;11167;46.988;15.470;2023-04-03T07:02:17;7.80;72.10
22006;DHT22;11167;46.988;15.470;2023-04-03T07:04:18;7.80;72.10
22006;DHT22;11167;46.988;15.470;2023-04-03T07:06:20;7.80;72.10
22006;DHT22;11167;46.988;15.470;2023-04-03T07:08:21;7.80;72.00
22006;DHT22;11167;46.988;15.470;2023-04-03T07:10:24;7.80;72.00
22006;DHT22;11167;46.988;15.470;2023-04-03T07:12:25;7.80;72.10
22006;DHT22;11167;46.988;15.470;2023-04-03T07:14:26;7.80;71.70
22006;DHT22;11167;46.988;15.470;2023-04-03T07:16:28;7.80;71.80
22006;DHT22;11167;46.988;15.470;2023-04-03T07:18:31;7.80;71.70
22006;DHT22;11167;46.988;15.470;2023-04-03T07:20:31;7.80;71.60
22006;DHT22;11167;46.988;15.470;2023-04-03T07:22:33;7.80;71.60
22006;DHT22;11167;46.988;15.470;2023-04-03T07:24:34;7.90;71.40
22006;DHT22;11167;46.988;15.470;2023-04-03T07:26:35;7.80;71.20
22006;DHT22;11167;46.988;15.470;2023-04-03T07:28:36;7.80;71.20
22006;DHT22;11167;46.988;15.470;2023-04-03T07:30:44;7.80;70.80
22006;DHT22;11167;46.988;15.470;2023-04-03T07:32:45;7.80;70.60
22006;DHT22;11167;46.988;15.470;2023-04-03T07:34:47;7.80;70.40
22006;DHT22;11167;46.988;15.470;2023-04-03T07:36:47;7.80;70.20
22006;DHT22;11167;46.988;15.470;2023-04-03T07:38:48;7.80;70.20
22006;DHT22;11167;46.988;15.470;2023-04-03T07:40:50;7.80;69.80
22006;DHT22;11167;46.988;15.470;2023-04-03T07:42:53;7.80;69.90
22006;DHT22;11167;46.988;15.470;2023-04-03T07:44:53;7.80;70.70
22006;DHT22;11167;46.988;15.470;2023-04-03T07:46:54;7.80;69.90
22006;DHT22;11167;46.988;15.470;2023-04-03T07:48:56;7.80;69.90
22006;DHT22;11167;46.988;15.470;2023-04-03T07:51:00;7.80;70.10
22006;DHT22;11167;46.988;15.470;2023-04-03T07:53:02;7.80;70.00
22006;DHT22;11167;46.988;15.470;2023-04-03T07:55:04;7.80;70.20
22006;DHT22;11167;46.988;15.470;2023-04-03T07:57:05;7.80;70.30
22006;DHT22;11167;46.988;15.470;2023-04-03T07:59:06;7.80;70.20
22006;DHT22;11167;46.988;15.470;2023-04-03T08:01:07;7.90;70.30
22006;DHT22;11167;46.988;15.470;2023-04-03T08:03:09;7.90;70.20
22006;DHT22;11167;46.988;15.470;2023-04-03T08:05:10;7.90;70.30
22006;DHT22;11167;46.988;15.470;2023-04-03T08:07:11;7.90;70.30
22006;DHT22;11167;46.988;15.470;2023-04-03T08:09:14;7.90;70.30
22006;DHT22;11167;46.988;15.470;2023-04-03T08:11:15;7.90;70.30
22006;DHT22;11167;46.988;15.470;2023-04-03T08:13:16;7.90;70.30
22006;DHT22;11167;46.988;15.470;2023-04-03T08:15:17;8.00;70.50
22006;DHT22;11167;46.988;15.470;2023-04-03T08:17:18;8.00;70.50
22006;DHT22;11167;46.988;15.470;2023-04-03T08:19:19;8.00;70.50
22006;DHT22;11167;46.988;15.470;2023-04-03T08:21:20;8.00;70.50
22006;DHT22;11167;46.988;15.470;2023-04-03T08:23:21;8.00;70.50
22006;DHT22;11167;46.988;15.470;2023-04-03T08:25:22;8.00;70.50
22006;DHT22;11167;46.988;15.470;2023-04-03T08:27:23;8.00;70.30
22006;DHT22;11167;46.988;15.470;2023-04-03T08:29:24;8.00;70.30
22006;DHT22;11167;46.988;15.470;2023-04-03T08:31:25;8.00;70.30
22006;DHT22;11167;46.988;15.470;2023-04-03T08:33:27;8.00;70.40
22006;DHT22;11167;46.988;15.470;2023-04-03T08:35:28;8.00;70.30
22006;DHT22;11167;46.988;15.470;2023-04-03T08:37:29;8.00;70.30
22006;DHT22;11167;46.988;15.470;2023-04-03T08:39:30;8.00;70.40
22006;DHT22;11167;46.988;15.470;2023-04-03T08:41:33;8.10;70.50
22006;DHT22;11167;46.988;15.470;2023-04-03T08:43:36;8.10;70.40
22006;DHT22;11167;46.988;15.470;2023-04-03T08:45:42;8.10;70.30
22006;DHT22;11167;46.988;15.470;2023-04-03T08:47:43;8.10;70.10
22006;DHT22;11167;46.988;15.470;2023-04-03T08:51:51;8.10;70.00
22006;DHT22;11167;46.988;15.470;2023-04-03T08:53:58;8.20;69.90
22006;DHT22;11167;46.988;15.470;2023-04-03T08:55:56;8.10;69.80
22006;DHT22;11167;46.988;15.470;2023-04-03T09:00:06;8.20;69.70
22006;DHT22;11167;46.988;15.470;2023-04-03T09:02:25;8.10;69.60
22006;DHT22;11167;46.988;15.470;2023-04-03T09:04:27;8.20;69.60
22006;DHT22;11167;46.988;15.470;2023-04-03T09:06:29;8.20;69.60
22006;DHT22;11167;46.988;15.470;2023-04-03T09:08:36;8.20;69.60
22006;DHT22;11167;46.988;15.470;2023-04-03T09:10:36;8.20;70.20
22006;DHT22;11167;46.988;15.470;2023-04-03T09:12:41;8.20;69.60
22006;DHT22;11167;46.988;15.470;2023-04-03T09:14:43;8.20;69.60
22006;DHT22;11167;46.988;15.470;2023-04-03T09:19:02;8.20;69.50
22006;DHT22;11167;46.988;15.470;2023-04-03T09:23:10;8.30;69.70
22006;DHT22;11167;46.988;15.470;2023-04-03T09:25:12;8.30;69.60
22006;DHT22;11167;46.988;15.470;2023-04-03T09:27:13;8.30;69.60
22006;DHT22;11167;46.988;15.470;2023-04-03T09:29:21;8.30;69.50
22006;DHT22;11167;46.988;15.470;2023-04-03T09:31:23;8.30;69.30
22006;DHT22;11167;46.988;15.470;2023-04-03T09:33:24;8.30;69.20
22006;DHT22;11167;46.988;15.470;2023-04-03T09:35:33;8.30;69.40
22006;DHT22;11167;46.988;15.470;2023-04-03T09:37:44;8.40;69.40
22006;DHT22;11167;46.988;15.470;2023-04-03T09:39:49;8.40;70.30
22006;DHT22;11167;46.988;15.470;2023-04-03T09:41:58;8.40;69.70
22006;DHT22;11167;46.988;15.470;2023-04-03T09:44:00;8.40;69.80
22006;DHT22;11167;46.988;15.470;2023-04-03T09:46:19;8.40;69.60
22006;DHT22;11167;46.988;15.470;2023-04-03T09:48:24;8.40;69.50
22006;DHT22;11167;46.988;15.470;2023-04-03T09:50:23;8.40;69.50
22006;DHT22;11167;46.988;15.470;2023-04-03T09:52:25;8.50;69.60
22006;DHT22;11167;46.988;15.470;2023-04-03T09:54:39;8.50;69.60
22006;DHT22;11167;46.988;15.470;2023-04-03T09:56:40;8.40;69.60
22006;DHT22;11167;46.988;15.470;2023-04-03T09:58:40;8.50;69.60
22006;DHT22;11167;46.988;15.470;2023-04-03T10:00:43;8.50;69.60
22006;DHT22;11167;46.988;15.470;2023-04-03T10:02:46;8.50;69.60
22006;DHT22;11167;46.988;15.470;2023-04-03T10:04:48;8.50;69.40
22006;DHT22;11167;46.988;15.470;2023-04-03T10:06:54;8.60;69.60
22006;DHT22;11167;46.988;15.470;2023-04-03T10:09:05;8.60;69.50
22006;DHT22;11167;46.988;15.470;2023-04-03T10:11:15;8.60;69.30
22006;DHT22;11167;46.988;15.470;2023-04-03T10:13:10;8.60;69.10
22006;DHT22;11167;46.988;15.470;2023-04-03T10:15:11;8.60;69.10
22006;DHT22;11167;46.988;15.470;2023-04-03T10:21:44;8.70;69.30
22006;DHT22;11167;46.988;15.470;2023-04-03T10:23:42;8.70;68.90
22006;DHT22;11167;46.988;15.470;2023-04-03T10:28:07;8.70;68.60
22006;DHT22;11167;46.988;15.470;2023-04-03T10:30:17;8.70;68.60
22006;DHT22;11167;46.988;15.470;2023-04-03T10:36:43;8.80;68.70
22006;DHT22;11167;46.988;15.470;2023-04-03T10:49:21;8.90;68.60
22006;DHT22;11167;46.988;15.470;2023-04-03T10:51:35;8.80;68.50
22006;DHT22;11167;46.988;15.470;2023-04-03T10:57:41;8.90;68.20
22006;DHT22;11167;46.988;15.470;2023-04-03T11:01:56;9.00;68.20
22006;DHT22;11167;46.988;15.470;2023-04-03T11:03:59;9.00;68.20
22006;DHT22;11167;46.988;15.470;2023-04-03T11:06:02;9.10;68.30
22006;DHT22;11167;46.988;15.470;2023-04-03T11:08:09;9.10;68.30
22006;DHT22;11167;46.988;15.470;2023-04-03T11:10:28;9.10;69.10
22006;DHT22;11167;46.988;15.470;2023-04-03T11:12:26;9.10;68.20
22006;DHT22;11167;46.988;15.470;2023-04-03T11:14:29;9.10;68.20
22006;DHT22;11167;46.988;15.470;2023-04-03T11:16:32;9.20;68.20
22006;DHT22;11167;46.988;15.470;2023-04-03T11:18:45;9.20;68.30
22006;DHT22;11167;46.988;15.470;2023-04-03T11:20:49;9.30;68.30
22006;DHT22;11167;46.988;15.470;2023-04-03T11:22:52;9.30;68.30
22006;DHT22;11167;46.988;15.470;2023-04-03T11:27:03;9.30;68.30
22006;DHT22;11167;46.988;15.470;2023-04-03T11:29:07;9.40;68.30
22006;DHT22;11167;46.988;15.470;2023-04-03T11:31:15;9.40;68.20
22006;DHT22;11167;46.988;15.470;2023-04-03T11:35:16;9.40;68.20
22006;DHT22;11167;46.988;15.470;2023-04-03T11:37:28;9.50;68.40
22006;DHT22;11167;46.988;15.470;2023-04-03T11:39:35;9.50;68.40
22006;DHT22;11167;46.988;15.470;2023-04-03T11:41:34;9.50;68.30
22006;DHT22;11167;46.988;15.470;2023-04-03T11:43:39;9.60;68.30
22006;DHT22;11167;46.988;15.470;2023-04-03T11:45:49;9.60;68.10
22006;DHT22;11167;46.988;15.470;2023-04-03T11:47:44;9.60;68.20
22006;DHT22;11167;46.988;15.470;2023-04-03T11:51:55;9.60;68.30
22006;DHT22;11167;46.988;15.470;2023-04-03T11:54:34;9.70;68.20
22006;DHT22;11167;46.988;15.470;2023-04-03T11:56:01;9.70;68.10
22006;DHT22;11167;46.988;15.470;2023-04-03T11:58:04;9.70;68.10
22006;DHT22;11167;46.988;15.470;2023-04-03T12:02:38;9.70;68.20
22006;DHT22;11167;46.988;15.470;2023-04-03T12:04:37;9.70;68.10
22006;DHT22;11167;46.988;15.470;2023-04-03T12:11:13;9.80;68.10
22006;DHT22;11167;46.988;15.470;2023-04-03T12:12:57;9.80;68.10
22006;DHT22;11167;46.988;15.470;2023-04-03T12:17:21;9.90;68.10
22006;DHT22;11167;46.988;15.470;2023-04-03T12:23:34;9.90;68.00
22006;DHT22;11167;46.988;15.470;2023-04-03T12:25:49;9.90;67.70
22006;DHT22;11167;46.988;15.470;2023-04-03T12:27:50;10.00;67.70
22006;DHT22;11167;46.988;15.470;2023-04-03T12:29:56;9.90;67.70
22006;DHT22;11167;46.988;15.470;2023-04-03T12:34:13;10.00;67.60
22006;DHT22;11167;46.988;15.470;2023-04-03T12:36:13;10.00;67.90
22006;DHT22;11167;46.988;15.470;2023-04-03T12:44:52;10.10;67.50
22006;DHT22;11167;46.988;15.470;2023-04-03T12:46:52;10.10;67.40
22006;DHT22;11167;46.988;15.470;2023-04-03T12:48:58;10.10;67.50
22006;DHT22;11167;46.988;15.470;2023-04-03T12:50:57;10.20;67.50
22006;DHT22;11167;46.988;15.470;2023-04-03T12:53:05;10.20;67.50
22006;DHT22;11167;46.988;15.470;2023-04-03T12:55:12;10.20;67.50
22006;DHT22;11167;46.988;15.470;2023-04-03T12:57:11;10.30;68.00
22006;DHT22;11167;46.988;15.470;2023-04-03T12:59:30;10.30;67.50
22006;DHT22;11167;46.988;15.470;2023-04-03T13:01:20;10.30;67.50
22006;DHT22;11167;46.988;15.470;2023-04-03T13:03:22;10.30;67.50
22006;DHT22;11167;46.988;15.470;2023-04-03T13:05:44;10.40;67.60
22006;DHT22;11167;46.988;15.470;2023-04-03T13:07:50;10.40;67.60
22006;DHT22;11167;46.988;15.470;2023-04-03T13:09:57;10.40;67.60
22006;DHT22;11167;46.988;15.470;2023-04-03T13:12:00;10.40;67.60
22006;DHT22;11167;46.988;15.470;2023-04-03T13:14:03;10.50;67.70
22006;DHT22;11167;46.988;15.470;2023-04-03T13:16:09;10.50;67.70
22006;DHT22;11167;46.988;15.470;2023-04-03T13:22:36;10.60;67.40
22006;DHT22;11167;46.988;15.470;2023-04-03T13:24:39;10.60;67.40
22006;DHT22;11167;46.988;15.470;2023-04-03T13:26:41;10.60;67.40
22006;DHT22;11167;46.988;15.470;2023-04-03T13:28:42;10.60;67.40
22006;DHT22;11167;46.988;15.470;2023-04-03T13:31:07;10.70;67.60
22006;DHT22;11167;46.988;15.470;2023-04-03T13:33:24;10.70;67.50
22006;DHT22;11167;46.988;15.470;2023-04-03T13:35:42;10.70;67.60
22006;DHT22;11167;46.988;15.470;2023-04-03T13:37:52;10.80;67.60
22006;DHT22;11167;46.988;15.470;2023-04-03T13:39:55;10.80;67.60
22006;DHT22;11167;46.988;15.470;2023-04-03T13:41:57;10.80;67.60
22006;DHT22;11167;46.988;15.470;2023-04-03T13:43:54;10.80;67.60
22006;DHT22;11167;46.988;15.470;2023-04-03T13:48:14;10.90;67.80
22006;DHT22;11167;46.988;15.470;2023-04-03T13:50:17;10.90;67.70
22006;DHT22;11167;46.988;15.470;2023-04-03T13:52:32;10.90;67.70
22006;DHT22;11167;46.988;15.470;2023-04-03T13:54:35;10.90;67.50
22006;DHT22;11167;46.988;15.470;2023-04-03T13:56:39;11.00;67.50
22006;DHT22;11167;46.988;15.470;2023-04-03T13:58:51;11.00;67.60
22006;DHT22;11167;46.988;15.470;2023-04-03T14:02:48;11.00;67.70
22006;DHT22;11167;46.988;15.470;2023-04-03T14:04:54;11.10;67.50
22006;DHT22;11167;46.988;15.470;2023-04-03T14:06:55;11.10;67.50
22006;DHT22;11167;46.988;15.470;2023-04-03T14:08:56;11.10;67.20
22006;DHT22;11167;46.988;15.470;2023-04-03T14:10:57;11.10;66.70